Terminal Aerodrome Forecast
Issued by NWS Charleston, WV

Current Version | Previous Version | Graphics & Text | Print | Product List | Glossary On
Versions: 1 2 3 4 5 6 7 8 9 10 11 12 13 14 15 16 17 18 19 20 21 22 23
891
FTUS41 KRLX 191139
TAFHTS
TAF
KHTS 191139Z 1912/2012 23003KT P6SM OVC010
     FM191500 25004KT P6SM BKN015
     FM192200 26004KT P6SM SCT020
     FM200900 00000KT 2SM BR SCT020=

USA.gov is the U.S. government's official web portal to all federal, state and local government web resources and services.